sensor_id;sensor_type;location;lat;lon;timestamp;temperature;humidity
42835;DHT22;29335;50.526;30.458;2022-08-21T00:01:27;19.50;99.90
42835;DHT22;29335;50.526;30.458;2022-08-21T00:03:54;19.50;99.90
42835;DHT22;29335;50.526;30.458;2022-08-21T00:06:21;19.50;99.90
42835;DHT22;29335;50.526;30.458;2022-08-21T00:08:46;19.50;99.90
42835;DHT22;29335;50.526;30.458;2022-08-21T00:11:13;19.40;99.90
42835;DHT22;29335;50.526;30.458;2022-08-21T00:13:39;19.40;99.90
42835;DHT22;29335;50.526;30.458;2022-08-21T00:16:05;19.50;99.90
42835;DHT22;29335;50.526;30.458;2022-08-21T00:18:31;19.50;99.90
42835;DHT22;29335;50.526;30.458;2022-08-21T00:20:56;16.30;99.90
42835;DHT22;29335;50.526;30.458;2022-08-21T00:23:22;19.50;99.90
42835;DHT22;29335;50.526;30.458;2022-08-21T00:25:48;19.60;99.90
42835;DHT22;29335;50.526;30.458;2022-08-21T00:28:15;19.70;99.90
42835;DHT22;29335;50.526;30.458;2022-08-21T00:30:41;19.60;99.90
42835;DHT22;29335;50.526;30.458;2022-08-21T00:33:07;19.40;99.90
42835;DHT22;29335;50.526;30.458;2022-08-21T00:35:36;19.40;99.90
42835;DHT22;29335;50.526;30.458;2022-08-21T00:38:04;19.30;99.90
42835;DHT22;29335;50.526;30.458;2022-08-21T00:40:35;19.30;99.90
42835;DHT22;29335;50.526;30.458;2022-08-21T00:43:03;19.20;99.90
42835;DHT22;29335;50.526;30.458;2022-08-21T00:45:29;19.20;99.90
42835;DHT22;29335;50.526;30.458;2022-08-21T00:47:55;19.60;99.90
42835;DHT22;29335;50.526;30.458;2022-08-21T00:50:22;19.20;99.90
42835;DHT22;29335;50.526;30.458;2022-08-21T00:52:50;19.10;99.90
42835;DHT22;29335;50.526;30.458;2022-08-21T00:55:17;19.00;99.90
42835;DHT22;29335;50.526;30.458;2022-08-21T00:57:47;19.00;99.90
42835;DHT22;29335;50.526;30.458;2022-08-21T01:00:16;19.00;99.90
42835;DHT22;29335;50.526;30.458;2022-08-21T01:02:43;18.90;99.90
42835;DHT22;29335;50.526;30.458;2022-08-21T01:05:10;19.40;99.90
42835;DHT22;29335;50.526;30.458;2022-08-21T01:07:36;19.00;99.90
42835;DHT22;29335;50.526;30.458;2022-08-21T01:10:03;19.00;99.90
42835;DHT22;29335;50.526;30.458;2022-08-21T01:12:29;18.90;99.90
42835;DHT22;29335;50.526;30.458;2022-08-21T01:14:55;18.90;99.90
42835;DHT22;29335;50.526;30.458;2022-08-21T01:17:20;18.90;99.90
42835;DHT22;29335;50.526;30.458;2022-08-21T01:19:46;18.90;99.90
42835;DHT22;29335;50.526;30.458;2022-08-21T01:22:12;18.80;99.90
42835;DHT22;29335;50.526;30.458;2022-08-21T01:24:39;18.80;99.90
42835;DHT22;29335;50.526;30.458;2022-08-21T01:27:05;18.80;99.90
42835;DHT22;29335;50.526;30.458;2022-08-21T01:29:48;19.30;99.90
42835;DHT22;29335;50.526;30.458;2022-08-21T01:32:19;18.80;99.90
42835;DHT22;29335;50.526;30.458;2022-08-21T01:34:46;18.80;99.90
42835;DHT22;29335;50.526;30.458;2022-08-21T01:37:13;18.90;99.90
42835;DHT22;29335;50.526;30.458;2022-08-21T01:39:40;18.90;99.90
42835;DHT22;29335;50.526;30.458;2022-08-21T01:42:07;18.90;99.90
42835;DHT22;29335;50.526;30.458;2022-08-21T01:44:33;19.80;99.90
42835;DHT22;29335;50.526;30.458;2022-08-21T01:47:01;18.90;99.90
42835;DHT22;29335;50.526;30.458;2022-08-21T01:49:27;18.90;99.90
42835;DHT22;29335;50.526;30.458;2022-08-21T01:51:52;18.80;99.90
42835;DHT22;29335;50.526;30.458;2022-08-21T01:54:19;18.90;99.90
42835;DHT22;29335;50.526;30.458;2022-08-21T01:56:47;19.10;99.90
42835;DHT22;29335;50.526;30.458;2022-08-21T01:59:14;18.80;99.90
42835;DHT22;29335;50.526;30.458;2022-08-21T02:01:40;18.90;99.90
42835;DHT22;29335;50.526;30.458;2022-08-21T02:04:06;19.00;99.90
42835;DHT22;29335;50.526;30.458;2022-08-21T02:06:33;18.70;99.90
42835;DHT22;29335;50.526;30.458;2022-08-21T02:09:00;19.50;99.90
42835;DHT22;29335;50.526;30.458;2022-08-21T02:11:26;18.80;99.90
42835;DHT22;29335;50.526;30.458;2022-08-21T02:13:51;18.90;99.90
42835;DHT22;29335;50.526;30.458;2022-08-21T02:16:17;19.70;99.90
42835;DHT22;29335;50.526;30.458;2022-08-21T02:18:42;20.00;99.90
42835;DHT22;29335;50.526;30.458;2022-08-21T02:21:08;18.90;99.90
42835;DHT22;29335;50.526;30.458;2022-08-21T02:23:34;19.10;99.90
42835;DHT22;29335;50.526;30.458;2022-08-21T02:26:01;18.90;99.90
42835;DHT22;29335;50.526;30.458;2022-08-21T02:28:27;18.90;99.90
42835;DHT22;29335;50.526;30.458;2022-08-21T02:30:54;18.90;99.90
42835;DHT22;29335;50.526;30.458;2022-08-21T02:33:22;19.30;99.90
42835;DHT22;29335;50.526;30.458;2022-08-21T02:35:48;18.90;99.90
42835;DHT22;29335;50.526;30.458;2022-08-21T02:38:22;19.00;99.90
42835;DHT22;29335;50.526;30.458;2022-08-21T02:40:49;18.90;99.90
42835;DHT22;29335;50.526;30.458;2022-08-21T02:43:15;18.90;99.90
42835;DHT22;29335;50.526;30.458;2022-08-21T02:45:42;18.90;99.90
42835;DHT22;29335;50.526;30.458;2022-08-21T02:48:10;18.90;99.90
42835;DHT22;29335;50.526;30.458;2022-08-21T02:50:39;19.50;99.90
42835;DHT22;29335;50.526;30.458;2022-08-21T02:53:06;18.90;99.90
42835;DHT22;29335;50.526;30.458;2022-08-21T02:55:33;19.00;99.90
42835;DHT22;29335;50.526;30.458;2022-08-21T02:58:01;18.90;99.90
42835;DHT22;29335;50.526;30.458;2022-08-21T03:00:29;18.90;99.90
42835;DHT22;29335;50.526;30.458;2022-08-21T03:02:55;18.80;99.90
42835;DHT22;29335;50.526;30.458;2022-08-21T03:05:22;18.80;99.90
42835;DHT22;29335;50.526;30.458;2022-08-21T03:07:48;19.00;99.90
42835;DHT22;29335;50.526;30.458;2022-08-21T03:10:15;18.80;99.90
42835;DHT22;29335;50.526;30.458;2022-08-21T03:12:41;18.80;99.90
42835;DHT22;29335;50.526;30.458;2022-08-21T03:15:10;18.90;99.90
42835;DHT22;29335;50.526;30.458;2022-08-21T03:17:36;18.80;99.90
42835;DHT22;29335;50.526;30.458;2022-08-21T03:20:04;18.90;99.90
42835;DHT22;29335;50.526;30.458;2022-08-21T03:22:30;19.00;99.90
42835;DHT22;29335;50.526;30.458;2022-08-21T03:24:56;19.10;99.90
42835;DHT22;29335;50.526;30.458;2022-08-21T03:27:22;19.00;99.90
42835;DHT22;29335;50.526;30.458;2022-08-21T03:29:50;18.90;99.90
42835;DHT22;29335;50.526;30.458;2022-08-21T03:32:16;19.30;99.90
42835;DHT22;29335;50.526;30.458;2022-08-21T03:34:41;19.70;99.90
42835;DHT22;29335;50.526;30.458;2022-08-21T03:37:07;19.60;99.90
42835;DHT22;29335;50.526;30.458;2022-08-21T03:39:34;19.00;99.90
42835;DHT22;29335;50.526;30.458;2022-08-21T03:42:00;19.00;99.90
42835;DHT22;29335;50.526;30.458;2022-08-21T03:44:27;19.10;99.90
42835;DHT22;29335;50.526;30.458;2022-08-21T03:46:54;19.20;99.90
42835;DHT22;29335;50.526;30.458;2022-08-21T03:49:20;19.40;99.90
42835;DHT22;29335;50.526;30.458;2022-08-21T03:51:46;19.30;99.90
42835;DHT22;29335;50.526;30.458;2022-08-21T03:54:12;19.30;99.90
42835;DHT22;29335;50.526;30.458;2022-08-21T03:56:37;19.40;99.90
42835;DHT22;29335;50.526;30.458;2022-08-21T03:59:05;19.40;99.90
42835;DHT22;29335;50.526;30.458;2022-08-21T04:01:31;19.40;99.90
42835;DHT22;29335;50.526;30.458;2022-08-21T04:03:57;19.30;99.90
42835;DHT22;29335;50.526;30.458;2022-08-21T04:06:23;19.30;99.90
42835;DHT22;29335;50.526;30.458;2022-08-21T04:08:48;19.40;99.90
42835;DHT22;29335;50.526;30.458;2022-08-21T04:11:14;19.30;99.90
42835;DHT22;29335;50.526;30.458;2022-08-21T04:13:40;19.40;99.90
42835;DHT22;29335;50.526;30.458;2022-08-21T04:16:07;19.50;99.90
42835;DHT22;29335;50.526;30.458;2022-08-21T04:18:32;19.70;99.90
42835;DHT22;29335;50.526;30.458;2022-08-21T04:20:59;20.00;99.90
42835;DHT22;29335;50.526;30.458;2022-08-21T04:23:27;20.30;99.90
42835;DHT22;29335;50.526;30.458;2022-08-21T04:25:53;20.60;99.90
42835;DHT22;29335;50.526;30.458;2022-08-21T04:28:22;20.80;99.90
42835;DHT22;29335;50.526;30.458;2022-08-21T04:30:47;20.90;99.90
42835;DHT22;29335;50.526;30.458;2022-08-21T04:33:14;21.10;99.90
42835;DHT22;29335;50.526;30.458;2022-08-21T04:35:40;21.20;99.90
42835;DHT22;29335;50.526;30.458;2022-08-21T04:38:07;21.40;99.90
42835;DHT22;29335;50.526;30.458;2022-08-21T04:40:33;21.60;99.90
42835;DHT22;29335;50.526;30.458;2022-08-21T04:43:02;21.70;99.90
42835;DHT22;29335;50.526;30.458;2022-08-21T04:45:31;21.80;99.90
42835;DHT22;29335;50.526;30.458;2022-08-21T04:47:59;21.90;99.90
42835;DHT22;29335;50.526;30.458;2022-08-21T04:50:56;22.10;99.90
42835;DHT22;29335;50.526;30.458;2022-08-21T04:53:26;22.20;99.90
42835;DHT22;29335;50.526;30.458;2022-08-21T04:55:54;22.10;99.90
42835;DHT22;29335;50.526;30.458;2022-08-21T04:58:22;22.10;99.90
42835;DHT22;29335;50.526;30.458;2022-08-21T05:00:52;22.00;99.90
42835;DHT22;29335;50.526;30.458;2022-08-21T05:03:18;22.00;99.90
42835;DHT22;29335;50.526;30.458;2022-08-21T05:05:44;21.90;99.90
42835;DHT22;29335;50.526;30.458;2022-08-21T05:08:13;21.90;99.90
42835;DHT22;29335;50.526;30.458;2022-08-21T05:10:41;21.90;99.90
42835;DHT22;29335;50.526;30.458;2022-08-21T05:13:08;21.90;99.90
42835;DHT22;29335;50.526;30.458;2022-08-21T05:15:35;22.00;99.90
42835;DHT22;29335;50.526;30.458;2022-08-21T05:18:00;22.10;99.90
42835;DHT22;29335;50.526;30.458;2022-08-21T05:20:26;23.50;99.90
42835;DHT22;29335;50.526;30.458;2022-08-21T05:22:51;22.40;99.90
42835;DHT22;29335;50.526;30.458;2022-08-21T05:25:17;22.40;99.90
42835;DHT22;29335;50.526;30.458;2022-08-21T05:27:42;22.50;99.90
42835;DHT22;29335;50.526;30.458;2022-08-21T05:30:09;22.50;99.90
42835;DHT22;29335;50.526;30.458;2022-08-21T05:32:36;22.50;99.90
42835;DHT22;29335;50.526;30.458;2022-08-21T05:35:06;22.70;99.90
42835;DHT22;29335;50.526;30.458;2022-08-21T05:37:32;22.80;99.90
42835;DHT22;29335;50.526;30.458;2022-08-21T05:39:59;22.90;99.90
42835;DHT22;29335;50.526;30.458;2022-08-21T05:42:25;22.90;99.90
42835;DHT22;29335;50.526;30.458;2022-08-21T05:44:50;22.80;99.90
42835;DHT22;29335;50.526;30.458;2022-08-21T05:47:16;22.70;99.90
42835;DHT22;29335;50.526;30.458;2022-08-21T05:49:42;22.90;99.90
42835;DHT22;29335;50.526;30.458;2022-08-21T05:52:07;22.80;99.90
42835;DHT22;29335;50.526;30.458;2022-08-21T05:54:33;22.80;99.90
42835;DHT22;29335;50.526;30.458;2022-08-21T05:57:01;22.80;99.90
42835;DHT22;29335;50.526;30.458;2022-08-21T05:59:26;22.70;99.90
42835;DHT22;29335;50.526;30.458;2022-08-21T06:01:53;22.60;99.90
42835;DHT22;29335;50.526;30.458;2022-08-21T06:04:18;22.40;99.90
42835;DHT22;29335;50.526;30.458;2022-08-21T06:06:44;22.30;99.90
42835;DHT22;29335;50.526;30.458;2022-08-21T06:09:10;22.10;99.90
42835;DHT22;29335;50.526;30.458;2022-08-21T06:11:35;22.20;99.90
42835;DHT22;29335;50.526;30.458;2022-08-21T06:14:01;22.20;99.90
42835;DHT22;29335;50.526;30.458;2022-08-21T06:16:27;22.30;99.90
42835;DHT22;29335;50.526;30.458;2022-08-21T06:18:53;22.30;99.90
42835;DHT22;29335;50.526;30.458;2022-08-21T06:21:19;22.50;99.90
42835;DHT22;29335;50.526;30.458;2022-08-21T06:23:44;22.50;99.90
42835;DHT22;29335;50.526;30.458;2022-08-21T06:26:11;22.60;99.90
42835;DHT22;29335;50.526;30.458;2022-08-21T06:28:38;22.50;99.90
42835;DHT22;29335;50.526;30.458;2022-08-21T06:31:14;22.60;99.90
42835;DHT22;29335;50.526;30.458;2022-08-21T06:33:40;22.50;99.90
42835;DHT22;29335;50.526;30.458;2022-08-21T06:36:06;22.60;99.90
42835;DHT22;29335;50.526;30.458;2022-08-21T06:38:32;22.60;99.90
42835;DHT22;29335;50.526;30.458;2022-08-21T06:40:57;22.50;99.90
42835;DHT22;29335;50.526;30.458;2022-08-21T06:43:23;22.50;99.90
42835;DHT22;29335;50.526;30.458;2022-08-21T06:45:49;22.50;99.90
42835;DHT22;29335;50.526;30.458;2022-08-21T06:48:14;22.60;99.90
42835;DHT22;29335;50.526;30.458;2022-08-21T06:50:40;22.50;99.90
42835;DHT22;29335;50.526;30.458;2022-08-21T06:53:12;22.60;99.90
42835;DHT22;29335;50.526;30.458;2022-08-21T06:55:39;22.70;99.90
42835;DHT22;29335;50.526;30.458;2022-08-21T06:58:06;22.80;99.90
42835;DHT22;29335;50.526;30.458;2022-08-21T07:00:32;22.90;99.90
42835;DHT22;29335;50.526;30.458;2022-08-21T07:02:58;22.90;99.90
42835;DHT22;29335;50.526;30.458;2022-08-21T07:05:28;23.00;99.90
42835;DHT22;29335;50.526;30.458;2022-08-21T07:07:54;23.10;99.90
42835;DHT22;29335;50.526;30.458;2022-08-21T07:10:20;23.00;99.90
42835;DHT22;29335;50.526;30.458;2022-08-21T07:12:46;23.10;99.90
42835;DHT22;29335;50.526;30.458;2022-08-21T07:15:11;23.10;99.90
42835;DHT22;29335;50.526;30.458;2022-08-21T07:17:37;23.20;99.90
42835;DHT22;29335;50.526;30.458;2022-08-21T07:20:04;23.20;99.90
42835;DHT22;29335;50.526;30.458;2022-08-21T07:22:30;23.30;99.90
42835;DHT22;29335;50.526;30.458;2022-08-21T07:24:56;23.40;99.90
42835;DHT22;29335;50.526;30.458;2022-08-21T07:27:21;23.60;99.90
42835;DHT22;29335;50.526;30.458;2022-08-21T07:29:47;23.50;99.90
42835;DHT22;29335;50.526;30.458;2022-08-21T07:32:14;23.50;99.90
42835;DHT22;29335;50.526;30.458;2022-08-21T07:34:40;23.40;99.90
42835;DHT22;29335;50.526;30.458;2022-08-21T07:37:06;23.40;99.90
42835;DHT22;29335;50.526;30.458;2022-08-21T07:39:31;23.50;99.90
42835;DHT22;29335;50.526;30.458;2022-08-21T07:41:57;23.40;99.90
42835;DHT22;29335;50.526;30.458;2022-08-21T07:44:23;23.50;99.90
42835;DHT22;29335;50.526;30.458;2022-08-21T07:46:48;23.50;99.90
42835;DHT22;29335;50.526;30.458;2022-08-21T07:49:14;23.60;99.90
42835;DHT22;29335;50.526;30.458;2022-08-21T07:51:40;23.70;99.90
42835;DHT22;29335;50.526;30.458;2022-08-21T07:54:05;23.70;99.90
42835;DHT22;29335;50.526;30.458;2022-08-21T07:56:31;23.80;99.90
42835;DHT22;29335;50.526;30.458;2022-08-21T07:58:57;23.90;99.90
42835;DHT22;29335;50.526;30.458;2022-08-21T08:01:23;23.80;99.90
42835;DHT22;29335;50.526;30.458;2022-08-21T08:03:49;23.80;99.90
42835;DHT22;29335;50.526;30.458;2022-08-21T08:06:15;23.80;99.90
42835;DHT22;29335;50.526;30.458;2022-08-21T08:08:44;23.90;99.90
42835;DHT22;29335;50.526;30.458;2022-08-21T08:11:10;23.90;99.80
42835;DHT22;29335;50.526;30.458;2022-08-21T08:13:41;24.10;99.60
42835;DHT22;29335;50.526;30.458;2022-08-21T08:16:07;24.10;99.50
42835;DHT22;29335;50.526;30.458;2022-08-21T08:18:33;24.10;99.50
42835;DHT22;29335;50.526;30.458;2022-08-21T08:20:59;24.10;99.30
42835;DHT22;29335;50.526;30.458;2022-08-21T08:23:24;23.90;99.40
42835;DHT22;29335;50.526;30.458;2022-08-21T08:25:50;24.00;99.50
42835;DHT22;29335;50.526;30.458;2022-08-21T08:28:16;24.10;99.20
42835;DHT22;29335;50.526;30.458;2022-08-21T08:30:42;24.20;99.00
42835;DHT22;29335;50.526;30.458;2022-08-21T08:33:08;24.30;98.90
42835;DHT22;29335;50.526;30.458;2022-08-21T08:35:33;24.30;98.80
42835;DHT22;29335;50.526;30.458;2022-08-21T08:37:59;24.30;98.60
42835;DHT22;29335;50.526;30.458;2022-08-21T08:40:36;24.50;98.40
42835;DHT22;29335;50.526;30.458;2022-08-21T08:43:05;24.40;98.50
42835;DHT22;29335;50.526;30.458;2022-08-21T08:45:34;24.50;98.40
42835;DHT22;29335;50.526;30.458;2022-08-21T08:48:05;24.50;98.50
42835;DHT22;29335;50.526;30.458;2022-08-21T08:50:41;24.60;98.40
42835;DHT22;29335;50.526;30.458;2022-08-21T08:53:13;24.60;98.30
42835;DHT22;29335;50.526;30.458;2022-08-21T08:55:42;24.70;98.10
42835;DHT22;29335;50.526;30.458;2022-08-21T08:58:16;24.70;98.00
42835;DHT22;29335;50.526;30.458;2022-08-21T09:00:43;24.60;97.90
42835;DHT22;29335;50.526;30.458;2022-08-21T09:03:10;24.70;98.00
42835;DHT22;29335;50.526;30.458;2022-08-21T09:06:24;24.70;98.10
42835;DHT22;29335;50.526;30.458;2022-08-21T09:08:46;24.90;97.80
42835;DHT22;29335;50.526;30.458;2022-08-21T09:11:52;24.90;97.60
42835;DHT22;29335;50.526;30.458;2022-08-21T09:21:18;25.10;96.70
42835;DHT22;29335;50.526;30.458;2022-08-21T09:26:12;25.10;96.90
42835;DHT22;29335;50.526;30.458;2022-08-21T09:28:39;25.10;96.60
42835;DHT22;29335;50.526;30.458;2022-08-21T09:31:14;25.10;96.70
42835;DHT22;29335;50.526;30.458;2022-08-21T09:33:41;25.20;96.20
42835;DHT22;29335;50.526;30.458;2022-08-21T09:36:06;25.10;96.10
42835;DHT22;29335;50.526;30.458;2022-08-21T09:38:36;25.30;95.70
42835;DHT22;29335;50.526;30.458;2022-08-21T09:41:08;25.60;95.60
42835;DHT22;29335;50.526;30.458;2022-08-21T09:43:35;25.50;95.50
42835;DHT22;29335;50.526;30.458;2022-08-21T09:46:20;25.60;95.40
42835;DHT22;29335;50.526;30.458;2022-08-21T09:48:49;25.70;94.90
42835;DHT22;29335;50.526;30.458;2022-08-21T09:51:18;25.60;94.70
42835;DHT22;29335;50.526;30.458;2022-08-21T09:53:58;25.40;94.30
42835;DHT22;29335;50.526;30.458;2022-08-21T09:56:34;25.40;94.40
42835;DHT22;29335;50.526;30.458;2022-08-21T09:59:38;25.40;94.40
42835;DHT22;29335;50.526;30.458;2022-08-21T10:02:27;25.50;94.10
42835;DHT22;29335;50.526;30.458;2022-08-21T10:04:59;25.50;93.70
42835;DHT22;29335;50.526;30.458;2022-08-21T10:07:26;25.60;93.50
42835;DHT22;29335;50.526;30.458;2022-08-21T10:21:06;25.90;92.40
42835;DHT22;29335;50.526;30.458;2022-08-21T10:23:38;25.90;92.00
42835;DHT22;29335;50.526;30.458;2022-08-21T10:29:01;26.00;91.50
42835;DHT22;29335;50.526;30.458;2022-08-21T10:40:02;26.50;91.20
42835;DHT22;29335;50.526;30.458;2022-08-21T10:42:52;26.40;90.60
42835;DHT22;29335;50.526;30.458;2022-08-21T10:47:54;26.30;90.60
42835;DHT22;29335;50.526;30.458;2022-08-21T10:50:50;26.40;90.70
42835;DHT22;29335;50.526;30.458;2022-08-21T10:53:29;26.40;90.40
42835;DHT22;29335;50.526;30.458;2022-08-21T10:56:26;26.50;90.20
42835;DHT22;29335;50.526;30.458;2022-08-21T10:59:02;26.60;89.60
42835;DHT22;29335;50.526;30.458;2022-08-21T11:02:20;26.60;89.50
42835;DHT22;29335;50.526;30.458;2022-08-21T11:07:38;26.70;88.60
42835;DHT22;29335;50.526;30.458;2022-08-21T11:10:16;26.80;87.70
42835;DHT22;29335;50.526;30.458;2022-08-21T11:12:48;26.70;87.50
42835;DHT22;29335;50.526;30.458;2022-08-21T11:29:28;26.40;90.30
42835;DHT22;29335;50.526;30.458;2022-08-21T11:32:03;26.50;90.00
42835;DHT22;29335;50.526;30.458;2022-08-21T11:34:45;26.40;90.20
42835;DHT22;29335;50.526;30.458;2022-08-21T11:40:24;26.70;89.50
42835;DHT22;29335;50.526;30.458;2022-08-21T11:43:14;26.80;89.60
42835;DHT22;29335;50.526;30.458;2022-08-21T11:45:50;26.90;90.20
42835;DHT22;29335;50.526;30.458;2022-08-21T11:51:19;26.90;88.40
42835;DHT22;29335;50.526;30.458;2022-08-21T11:53:50;26.90;88.20
42835;DHT22;29335;50.526;30.458;2022-08-21T11:56:33;27.00;88.40
42835;DHT22;29335;50.526;30.458;2022-08-21T11:59:05;26.90;88.00
42835;DHT22;29335;50.526;30.458;2022-08-21T12:01:39;27.00;88.40
42835;DHT22;29335;50.526;30.458;2022-08-21T12:04:17;27.10;87.80
42835;DHT22;29335;50.526;30.458;2022-08-21T12:06:43;27.20;86.50
42835;DHT22;29335;50.526;30.458;2022-08-21T12:12:22;27.30;85.90
42835;DHT22;29335;50.526;30.458;2022-08-21T12:14:50;27.30;86.20
42835;DHT22;29335;50.526;30.458;2022-08-21T12:17:22;27.20;86.80
42835;DHT22;29335;50.526;30.458;2022-08-21T12:23:03;27.40;87.10
42835;DHT22;29335;50.526;30.458;2022-08-21T12:25:38;27.30;85.90
42835;DHT22;29335;50.526;30.458;2022-08-21T12:28:09;27.30;86.00
42835;DHT22;29335;50.526;30.458;2022-08-21T12:30:39;27.10;86.60
42835;DHT22;29335;50.526;30.458;2022-08-21T12:33:38;27.10;87.20
42835;DHT22;29335;50.526;30.458;2022-08-21T12:36:14;27.20;87.10
42835;DHT22;29335;50.526;30.458;2022-08-21T12:38:57;27.10;87.20
42835;DHT22;29335;50.526;30.458;2022-08-21T12:41:28;27.20;87.70
42835;DHT22;29335;50.526;30.458;2022-08-21T12:44:00;27.30;87.70
42835;DHT22;29335;50.526;30.458;2022-08-21T12:46:46;27.30;87.00
42835;DHT22;29335;50.526;30.458;2022-08-21T12:49:16;27.30;86.40
42835;DHT22;29335;50.526;30.458;2022-08-21T12:51:55;27.10;87.20
42835;DHT22;29335;50.526;30.458;2022-08-21T12:54:36;27.10;87.30
42835;DHT22;29335;50.526;30.458;2022-08-21T12:57:05;27.00;87.60
42835;DHT22;29335;50.526;30.458;2022-08-21T12:59:36;27.10;88.10
42835;DHT22;29335;50.526;30.458;2022-08-21T13:02:05;27.00;87.80
42835;DHT22;29335;50.526;30.458;2022-08-21T13:04:39;27.10;88.00
42835;DHT22;29335;50.526;30.458;2022-08-21T13:07:11;27.30;87.80
42835;DHT22;29335;50.526;30.458;2022-08-21T13:09:44;27.30;88.20
42835;DHT22;29335;50.526;30.458;2022-08-21T13:12:12;27.20;87.80
42835;DHT22;29335;50.526;30.458;2022-08-21T13:14:41;27.20;88.00
42835;DHT22;29335;50.526;30.458;2022-08-21T13:17:07;27.20;88.40
42835;DHT22;29335;50.526;30.458;2022-08-21T13:19:33;27.20;87.80
42835;DHT22;29335;50.526;30.458;2022-08-21T13:22:00;27.10;87.50
42835;DHT22;29335;50.526;30.458;2022-08-21T13:24:35;27.10;88.10
42835;DHT22;29335;50.526;30.458;2022-08-21T13:27:01;27.20;87.40
42835;DHT22;29335;50.526;30.458;2022-08-21T13:29:30;27.10;87.80
42835;DHT22;29335;50.526;30.458;2022-08-21T13:32:00;27.00;88.60
42835;DHT22;29335;50.526;30.458;2022-08-21T13:34:31;27.00;88.40
42835;DHT22;29335;50.526;30.458;2022-08-21T13:37:02;27.00;88.90
42835;DHT22;29335;50.526;30.458;2022-08-21T13:39:28;27.10;89.00
42835;DHT22;29335;50.526;30.458;2022-08-21T13:41:56;27.10;88.60
42835;DHT22;29335;50.526;30.458;2022-08-21T13:44:39;27.10;88.40
42835;DHT22;29335;50.526;30.458;2022-08-21T13:47:05;27.10;88.10
42835;DHT22;29335;50.526;30.458;2022-08-21T13:49:34;27.00;88.90
42835;DHT22;29335;50.526;30.458;2022-08-21T13:52:01;27.10;88.80
42835;DHT22;29335;50.526;30.458;2022-08-21T13:54:38;27.00;88.50
42835;DHT22;29335;50.526;30.458;2022-08-21T13:57:04;27.20;89.60
42835;DHT22;29335;50.526;30.458;2022-08-21T13:59:35;27.10;89.00
42835;DHT22;29335;50.526;30.458;2022-08-21T14:02:10;27.00;89.50
42835;DHT22;29335;50.526;30.458;2022-08-21T14:04:54;26.90;89.10
42835;DHT22;29335;50.526;30.458;2022-08-21T14:07:26;27.00;89.60
42835;DHT22;29335;50.526;30.458;2022-08-21T14:09:53;27.00;88.70
42835;DHT22;29335;50.526;30.458;2022-08-21T14:12:28;26.90;89.30
42835;DHT22;29335;50.526;30.458;2022-08-21T14:14:56;27.00;89.30
42835;DHT22;29335;50.526;30.458;2022-08-21T14:17:37;27.00;89.00
42835;DHT22;29335;50.526;30.458;2022-08-21T14:20:12;26.90;88.40
42835;DHT22;29335;50.526;30.458;2022-08-21T14:22:50;26.90;88.50
42835;DHT22;29335;50.526;30.458;2022-08-21T14:27:51;27.00;89.00
42835;DHT22;29335;50.526;30.458;2022-08-21T14:32:46;27.10;88.20
42835;DHT22;29335;50.526;30.458;2022-08-21T14:35:13;27.10;87.70
42835;DHT22;29335;50.526;30.458;2022-08-21T14:37:42;27.10;87.70
42835;DHT22;29335;50.526;30.458;2022-08-21T14:40:08;27.10;87.70
42835;DHT22;29335;50.526;30.458;2022-08-21T14:42:34;27.10;87.70
42835;DHT22;29335;50.526;30.458;2022-08-21T14:45:03;27.10;87.30
42835;DHT22;29335;50.526;30.458;2022-08-21T14:47:30;27.10;87.00
42835;DHT22;29335;50.526;30.458;2022-08-21T14:49:56;27.10;87.30
42835;DHT22;29335;50.526;30.458;2022-08-21T14:52:22;27.10;87.50
42835;DHT22;29335;50.526;30.458;2022-08-21T14:54:49;26.90;87.30
42835;DHT22;29335;50.526;30.458;2022-08-21T14:57:15;26.80;87.50
42835;DHT22;29335;50.526;30.458;2022-08-21T14:59:41;26.80;88.00
42835;DHT22;29335;50.526;30.458;2022-08-21T15:02:08;26.90;88.80
42835;DHT22;29335;50.526;30.458;2022-08-21T15:04:34;26.90;88.50
42835;DHT22;29335;50.526;30.458;2022-08-21T15:07:00;26.90;88.50
42835;DHT22;29335;50.526;30.458;2022-08-21T15:09:26;26.80;88.70
42835;DHT22;29335;50.526;30.458;2022-08-21T15:11:57;26.80;89.00
42835;DHT22;29335;50.526;30.458;2022-08-21T15:14:26;26.90;88.50
42835;DHT22;29335;50.526;30.458;2022-08-21T15:16:52;26.80;88.40
42835;DHT22;29335;50.526;30.458;2022-08-21T15:19:18;26.70;88.70
42835;DHT22;29335;50.526;30.458;2022-08-21T15:21:44;26.70;88.80
42835;DHT22;29335;50.526;30.458;2022-08-21T15:24:10;26.70;87.90
42835;DHT22;29335;50.526;30.458;2022-08-21T15:26:35;26.70;88.20
42835;DHT22;29335;50.526;30.458;2022-08-21T15:29:02;26.70;87.70
42835;DHT22;29335;50.526;30.458;2022-08-21T15:31:27;26.50;88.60
42835;DHT22;29335;50.526;30.458;2022-08-21T15:33:53;26.50;88.60
42835;DHT22;29335;50.526;30.458;2022-08-21T15:36:19;26.50;88.50
42835;DHT22;29335;50.526;30.458;2022-08-21T15:38:45;26.50;89.50
42835;DHT22;29335;50.526;30.458;2022-08-21T15:41:11;26.50;90.20
42835;DHT22;29335;50.526;30.458;2022-08-21T15:43:51;26.40;90.30
42835;DHT22;29335;50.526;30.458;2022-08-21T15:46:19;26.30;90.40
42835;DHT22;29335;50.526;30.458;2022-08-21T15:48:45;26.20;90.70
42835;DHT22;29335;50.526;30.458;2022-08-21T15:51:12;26.20;90.80
42835;DHT22;29335;50.526;30.458;2022-08-21T15:53:38;26.10;90.80
42835;DHT22;29335;50.526;30.458;2022-08-21T15:56:26;26.20;90.90
42835;DHT22;29335;50.526;30.458;2022-08-21T15:58:57;26.00;91.00
42835;DHT22;29335;50.526;30.458;2022-08-21T16:01:24;26.00;91.00
42835;DHT22;29335;50.526;30.458;2022-08-21T16:03:52;25.90;91.20
42835;DHT22;29335;50.526;30.458;2022-08-21T16:06:18;25.80;91.40
42835;DHT22;29335;50.526;30.458;2022-08-21T16:08:44;25.70;91.40
42835;DHT22;29335;50.526;30.458;2022-08-21T16:11:13;25.60;91.50
42835;DHT22;29335;50.526;30.458;2022-08-21T16:13:42;25.60;91.60
42835;DHT22;29335;50.526;30.458;2022-08-21T16:16:15;25.60;91.80
42835;DHT22;29335;50.526;30.458;2022-08-21T16:18:41;25.60;91.90
42835;DHT22;29335;50.526;30.458;2022-08-21T16:21:08;25.60;92.00
42835;DHT22;29335;50.526;30.458;2022-08-21T16:23:34;25.50;91.80
42835;DHT22;29335;50.526;30.458;2022-08-21T16:26:02;25.50;91.70
42835;DHT22;29335;50.526;30.458;2022-08-21T16:28:29;25.40;91.90
42835;DHT22;29335;50.526;30.458;2022-08-21T16:30:55;25.40;92.10
42835;DHT22;29335;50.526;30.458;2022-08-21T16:35:52;25.30;92.10
42835;DHT22;29335;50.526;30.458;2022-08-21T16:38:18;25.20;92.20